createdAt,value
2023-02-02T00:00:45.144Z,75.55
2023-02-02T00:03:11.604Z,75.44
2023-02-02T00:05:38.062Z,75.41
2023-02-02T00:08:04.859Z,75.47
2023-02-02T00:10:31.284Z,75.76
2023-02-02T00:12:57.865Z,75.37
2023-02-02T00:15:25.067Z,75.38
2023-02-02T00:17:51.725Z,75.47
2023-02-02T00:20:20.446Z,75.56
2023-02-02T00:22:46.886Z,75.39
2023-02-02T00:25:13.377Z,74.99
2023-02-02T00:27:39.853Z,75.50
2023-02-02T00:30:07.310Z,75.43
2023-02-02T00:32:33.914Z,75.29
2023-02-02T00:35:00.421Z,74.97
2023-02-02T00:37:26.908Z,75.42
2023-02-02T00:39:53.382Z,75.51
2023-02-02T00:42:19.879Z,75.79
2023-02-02T00:44:46.313Z,75.52
2023-02-02T00:47:12.770Z,75.90
2023-02-02T00:49:39.276Z,76.25
2023-02-02T00:52:05.769Z,76.31
2023-02-02T00:54:32.343Z,76.02
2023-02-02T00:56:58.881Z,76.29
2023-02-02T00:59:25.365Z,76.53
2023-02-02T01:01:52.021Z,76.56
2023-02-02T01:04:18.522Z,76.80
2023-02-02T01:06:46.203Z,76.89
2023-02-02T01:09:12.964Z,77.33
2023-02-02T01:11:39.429Z,77.33
2023-02-02T01:14:06.096Z,77.00
2023-02-02T01:16:34.277Z,77.50
2023-02-02T01:19:00.815Z,77.53
2023-02-02T01:21:27.609Z,77.14
2023-02-02T01:23:54.064Z,77.28
2023-02-02T01:26:20.516Z,77.65
2023-02-02T01:28:47.289Z,77.58
2023-02-02T01:31:17.147Z,77.50
2023-02-02T01:33:45.209Z,78.18
2023-02-02T01:36:15.512Z,77.71
2023-02-02T01:38:43.260Z,78.82
2023-02-02T01:41:14.110Z,77.82
2023-02-02T01:43:43.650Z,78.09
2023-02-02T01:46:18.923Z,78.21
2023-02-02T01:48:54.953Z,78.00
2023-02-02T01:51:25.187Z,78.38
2023-02-02T01:53:54.597Z,78.32
2023-02-02T01:56:46.813Z,78.50
2023-02-02T01:59:16.333Z,78.52
2023-02-02T02:01:46.350Z,78.90
2023-02-02T02:04:13.560Z,79.34
2023-02-02T02:06:40.146Z,79.44
2023-02-02T02:09:08.276Z,79.51
2023-02-02T02:11:37.148Z,79.75
2023-02-02T02:14:07.995Z,79.76
2023-02-02T02:16:46.709Z,79.11
2023-02-02T02:19:31.845Z,79.26
2023-02-02T02:22:14.516Z,78.95
2023-02-02T02:25:01.266Z,79.48
2023-02-02T02:28:22.604Z,79.45
2023-02-02T02:31:07.323Z,79.21
2023-02-02T02:33:53.462Z,80.15
2023-02-02T02:36:25.111Z,80.09
2023-02-02T02:39:13.295Z,80.53
2023-02-02T02:41:45.986Z,79.37
2023-02-02T02:44:16.198Z,80.35
2023-02-02T02:46:43.909Z,80.25
2023-02-02T02:49:12.686Z,80.26
2023-02-02T02:51:50.239Z,81.03
2023-02-02T02:54:32.642Z,80.69
2023-02-02T02:57:22.753Z,80.12
2023-02-02T03:00:02.841Z,81.16
2023-02-02T03:03:01.406Z,81.04
2023-02-02T03:05:44.826Z,80.37
2023-02-02T03:08:27.311Z,81.98
2023-02-02T03:10:56.599Z,80.71
2023-02-02T03:13:23.509Z,81.15
2023-02-02T03:15:50.005Z,80.40
2023-02-02T03:18:19.080Z,80.88
2023-02-02T03:20:45.984Z,80.66
2023-02-02T03:23:13.237Z,80.99
2023-02-02T03:25:39.762Z,81.16
2023-02-02T03:28:06.983Z,81.58
2023-02-02T03:30:34.401Z,81.32
2023-02-02T03:33:00.924Z,81.30
2023-02-02T03:35:27.367Z,81.06
2023-02-02T03:37:53.792Z,81.88
2023-02-02T03:40:20.328Z,81.99
2023-02-02T03:42:46.760Z,81.24
2023-02-02T03:45:13.505Z,81.33
2023-02-02T03:47:39.975Z,81.17
2023-02-02T03:50:09.799Z,82.00
2023-02-02T03:52:36.395Z,82.15
2023-02-02T03:55:03.401Z,82.19
2023-02-02T03:57:29.830Z,81.83
2023-02-02T03:59:56.322Z,81.85
2023-02-02T04:02:23.251Z,82.35
2023-02-02T04:04:49.706Z,82.62
2023-02-02T04:07:16.236Z,81.94
2023-02-02T04:09:42.759Z,82.14
2023-02-02T04:12:09.249Z,81.77
2023-02-02T04:14:35.803Z,81.87
2023-02-02T04:17:02.291Z,82.71
2023-02-02T04:19:28.764Z,81.81
2023-02-02T04:21:55.228Z,81.66
2023-02-02T04:24:21.762Z,82.10
2023-02-02T04:26:48.281Z,81.32
2023-02-02T04:29:14.802Z,81.38
2023-02-02T04:31:41.309Z,81.18
2023-02-02T04:34:07.754Z,82.03
2023-02-02T04:36:34.380Z,81.66
2023-02-02T04:39:00.892Z,81.24
2023-02-02T04:41:27.388Z,81.13
2023-02-02T04:43:53.834Z,81.35
2023-02-02T04:46:20.351Z,80.94
2023-02-02T04:48:48.787Z,81.25
2023-02-02T04:51:15.486Z,81.17
2023-02-02T04:53:42.862Z,81.10
2023-02-02T04:56:17.911Z,80.72
2023-02-02T04:58:45.337Z,80.79
2023-02-02T05:01:17.421Z,80.94
2023-02-02T05:03:44.858Z,80.51
2023-02-02T05:06:13.496Z,80.84
2023-02-02T05:08:41.219Z,80.30
2023-02-02T05:11:12.337Z,80.80
2023-02-02T05:13:38.818Z,80.55
2023-02-02T05:16:06.573Z,80.59
2023-02-02T05:18:33.331Z,80.44
2023-02-02T05:21:00.759Z,81.22
2023-02-02T05:23:27.434Z,81.14
2023-02-02T05:25:54.975Z,80.30
2023-02-02T05:28:23.128Z,80.33
2023-02-02T05:30:50.110Z,80.48
2023-02-02T05:33:17.121Z,81.12
2023-02-02T05:35:48.195Z,80.61
2023-02-02T05:38:15.744Z,80.69
2023-02-02T05:40:42.508Z,80.81
2023-02-02T05:43:09.013Z,81.27
2023-02-02T05:45:35.468Z,80.92
2023-02-02T05:48:01.972Z,79.91
2023-02-02T05:50:28.462Z,80.20
2023-02-02T05:53:03.220Z,79.96
2023-02-02T05:55:29.794Z,81.19
2023-02-02T05:57:56.192Z,80.18
2023-02-02T06:00:22.938Z,80.50
2023-02-02T06:02:49.412Z,80.74
2023-02-02T06:05:15.995Z,80.58
2023-02-02T06:07:42.487Z,81.50
2023-02-02T06:10:09.263Z,80.68
2023-02-02T06:12:35.691Z,80.99
2023-02-02T06:15:02.180Z,81.68
2023-02-02T06:17:28.629Z,81.11
2023-02-02T06:19:55.122Z,81.22
2023-02-02T06:22:21.648Z,80.74
2023-02-02T06:24:48.192Z,81.73
2023-02-02T06:27:14.635Z,81.46
2023-02-02T06:29:41.126Z,80.50
2023-02-02T06:32:07.616Z,81.00
2023-02-02T06:34:34.095Z,82.05
2023-02-02T06:37:00.580Z,81.92
2023-02-02T06:39:27.078Z,80.95
2023-02-02T06:41:53.516Z,81.17
2023-02-02T06:44:20.100Z,82.26
2023-02-02T06:46:46.768Z,81.84
2023-02-02T06:49:13.409Z,82.03
2023-02-02T06:51:39.860Z,82.02
2023-02-02T06:54:06.302Z,82.33
2023-02-02T06:56:32.805Z,82.25
2023-02-02T06:58:59.246Z,81.72
2023-02-02T07:01:25.792Z,81.58
2023-02-02T07:03:53.341Z,82.04
2023-02-02T07:06:25.636Z,82.38
2023-02-02T07:08:57.613Z,81.75
2023-02-02T07:11:29.057Z,82.41
2023-02-02T07:13:55.661Z,82.52
2023-02-02T07:16:22.128Z,81.93
2023-02-02T07:18:48.689Z,82.56
2023-02-02T07:21:20.842Z,82.01
2023-02-02T07:23:47.432Z,81.51
2023-02-02T07:26:15.125Z,81.65
2023-02-02T07:28:42.158Z,82.26
2023-02-02T07:31:18.228Z,81.49
2023-02-02T07:33:45.819Z,82.02
2023-02-02T07:36:14.251Z,82.38
2023-02-02T07:38:40.735Z,82.52
2023-02-02T07:41:07.244Z,81.35
2023-02-02T07:43:33.788Z,81.95
2023-02-02T07:46:02.145Z,82.09
2023-02-02T07:48:32.047Z,82.75
2023-02-02T07:51:00.051Z,82.01
2023-02-02T07:53:27.603Z,83.03
2023-02-02T07:55:54.213Z,82.67
2023-02-02T07:58:20.659Z,82.58
2023-02-02T08:00:47.263Z,82.39
2023-02-02T08:03:13.782Z,81.83
2023-02-02T08:05:40.393Z,82.72
2023-02-02T08:08:06.905Z,82.34
2023-02-02T08:10:33.371Z,81.99
2023-02-02T08:12:59.904Z,81.63
2023-02-02T08:15:26.630Z,81.47
2023-02-02T08:17:53.251Z,81.56
2023-02-02T08:20:19.711Z,82.24
2023-02-02T08:22:46.208Z,81.80
2023-02-02T08:25:12.649Z,81.64
2023-02-02T08:27:39.296Z,82.13
2023-02-02T08:30:06.187Z,82.10
2023-02-02T08:32:32.691Z,81.50
2023-02-02T08:34:59.130Z,82.04
2023-02-02T08:37:25.609Z,81.36
2023-02-02T08:39:52.037Z,81.51
2023-02-02T08:42:18.495Z,81.75
2023-02-02T08:46:02.798Z,81.34
2023-02-02T08:47:31.467Z,81.48
2023-02-02T08:49:57.965Z,81.89
2023-02-02T08:52:25.857Z,81.55
2023-02-02T08:54:52.418Z,81.76
2023-02-02T08:57:18.892Z,81.51
2023-02-02T08:59:45.325Z,82.19
2023-02-02T09:02:11.835Z,81.86
2023-02-02T09:04:38.311Z,81.27
2023-02-02T09:07:04.777Z,81.39
2023-02-02T09:09:31.207Z,80.57
2023-02-02T09:11:57.732Z,80.13
2023-02-02T09:14:24.254Z,79.89
2023-02-02T09:16:50.914Z,79.15
2023-02-02T09:19:17.427Z,78.40
2023-02-02T09:21:43.898Z,77.63
2023-02-02T09:24:12.558Z,76.49
2023-02-02T09:26:39.730Z,75.72
2023-02-02T09:29:08.530Z,75.83
2023-02-02T09:31:37.222Z,75.49
2023-02-02T09:34:06.252Z,75.98
2023-02-02T09:36:33.530Z,76.03
2023-02-02T09:39:00.318Z,75.76
2023-02-02T09:41:38.682Z,76.27
2023-02-02T09:44:24.427Z,76.16
2023-02-02T09:47:21.448Z,76.02
2023-02-02T09:50:16.078Z,74.79
2023-02-02T09:52:45.369Z,75.18
2023-02-02T09:55:14.132Z,74.34
2023-02-02T09:57:48.855Z,73.55
2023-02-02T10:00:36.231Z,70.63
2023-02-02T10:03:22.680Z,72.17
2023-02-02T10:05:57.378Z,71.25
2023-02-02T10:08:38.542Z,70.56
2023-02-02T10:11:25.924Z,68.85
2023-02-02T10:13:56.748Z,69.35
2023-02-02T10:16:24.827Z,68.19
2023-02-02T10:19:04.586Z,67.59
2023-02-02T10:21:59.170Z,67.56
2023-02-02T10:24:29.275Z,67.77
2023-02-02T10:26:59.674Z,67.45
2023-02-02T10:29:48.613Z,67.33
2023-02-02T10:32:28.672Z,66.58
2023-02-02T10:35:18.238Z,66.75
2023-02-02T10:38:13.448Z,66.49
2023-02-02T10:40:46.113Z,65.18
2023-02-02T10:43:27.511Z,63.50
2023-02-02T10:45:56.037Z,63.79
2023-02-02T10:48:26.510Z,63.80
2023-02-02T10:50:57.803Z,63.40
2023-02-02T10:53:28.401Z,63.73
2023-02-02T10:56:08.721Z,63.50
2023-02-02T10:58:54.834Z,63.24
2023-02-02T11:01:21.351Z,64.53
2023-02-02T11:03:48.659Z,63.83
2023-02-02T11:06:16.219Z,64.22
2023-02-02T11:08:44.625Z,63.65
2023-02-02T11:11:17.410Z,63.59
2023-02-02T11:13:50.723Z,63.65
2023-02-02T11:16:17.284Z,64.09
2023-02-02T11:18:45.004Z,63.87
2023-02-02T11:21:24.446Z,63.12
2023-02-02T11:23:53.799Z,64.28
2023-02-02T11:26:21.908Z,64.02
2023-02-02T11:28:49.557Z,63.64
2023-02-02T11:31:35.599Z,64.12
2023-02-02T11:34:28.528Z,64.30
2023-02-02T11:37:21.377Z,64.17
2023-02-02T11:39:48.061Z,65.25
2023-02-02T11:42:20.808Z,65.40
2023-02-02T11:44:53.468Z,64.66
2023-02-02T11:47:30.359Z,64.64
2023-02-02T11:49:58.795Z,64.89
2023-02-02T11:52:29.641Z,64.71
2023-02-02T11:55:01.419Z,65.70
2023-02-02T11:57:29.098Z,65.35
2023-02-02T12:00:10.901Z,65.14
2023-02-02T12:02:37.496Z,64.44
2023-02-02T12:05:10.010Z,64.09
2023-02-02T12:07:36.648Z,64.06
2023-02-02T12:10:18.788Z,64.34
2023-02-02T12:12:54.662Z,64.40
2023-02-02T12:15:25.930Z,64.53
2023-02-02T12:18:01.908Z,64.60
2023-02-02T12:21:00.596Z,64.19
2023-02-02T12:23:55.057Z,63.80
2023-02-02T12:26:27.276Z,64.04
2023-02-02T12:29:16.785Z,64.77
2023-02-02T12:32:20.767Z,64.04
2023-02-02T12:35:05.198Z,64.92
2023-02-02T12:37:57.552Z,65.03
2023-02-02T12:40:42.372Z,65.75
2023-02-02T12:43:18.996Z,65.91
2023-02-02T12:46:06.980Z,65.92
2023-02-02T12:48:45.680Z,66.06
2023-02-02T12:51:50.351Z,65.97
2023-02-02T12:54:47.866Z,66.37
2023-02-02T12:57:54.871Z,67.40
2023-02-02T13:00:38.855Z,66.95
2023-02-02T13:03:15.842Z,67.51
2023-02-02T13:05:50.310Z,68.30
2023-02-02T13:08:23.558Z,67.79
2023-02-02T13:10:54.787Z,68.56
2023-02-02T13:13:36.110Z,69.22
2023-02-02T13:16:21.034Z,68.94
2023-02-02T13:18:54.944Z,69.82
2023-02-02T13:21:24.600Z,69.20
2023-02-02T13:23:55.651Z,70.18
2023-02-02T13:26:44.201Z,70.09
2023-02-02T13:29:10.679Z,70.16
2023-02-02T13:31:51.716Z,70.55
2023-02-02T13:34:24.399Z,70.86
2023-02-02T13:36:59.324Z,70.55
2023-02-02T13:39:34.854Z,71.30
2023-02-02T13:42:03.154Z,71.43
2023-02-02T13:44:38.234Z,70.96
2023-02-02T13:47:34.976Z,71.03
2023-02-02T13:50:09.809Z,70.64
2023-02-02T13:52:45.111Z,70.75
2023-02-02T13:55:26.901Z,70.32
2023-02-02T13:58:19.302Z,70.67
2023-02-02T14:00:49.610Z,69.98
2023-02-02T14:03:48.335Z,70.07
2023-02-02T14:06:22.268Z,69.79
2023-02-02T14:09:01.448Z,69.79
2023-02-02T14:11:32.662Z,69.24
2023-02-02T14:14:21.261Z,69.27
2023-02-02T14:16:49.703Z,69.83
2023-02-02T14:19:41.552Z,68.83
2023-02-02T14:22:11.481Z,69.41
2023-02-02T14:24:37.903Z,68.23
2023-02-02T14:27:07.496Z,68.12
2023-02-02T14:29:35.209Z,68.48
2023-02-02T14:32:37.324Z,68.35
2023-02-02T14:35:12.915Z,68.09
2023-02-02T14:37:51.156Z,68.50
2023-02-02T14:40:53.029Z,67.75
2023-02-02T14:43:22.556Z,67.87
2023-02-02T14:46:14.976Z,67.03
2023-02-02T14:48:46.561Z,66.56
2023-02-02T14:51:18.992Z,63.60
2023-02-02T14:53:54.903Z,63.97
2023-02-02T14:56:39.983Z,62.29
2023-02-02T14:59:06.957Z,64.01
2023-02-02T15:01:35.493Z,63.97
2023-02-02T15:04:23.927Z,63.68
2023-02-02T15:06:51.884Z,64.11
2023-02-02T15:09:21.137Z,64.20
2023-02-02T15:12:01.655Z,63.90
2023-02-02T15:14:28.401Z,64.55
2023-02-02T15:16:55.643Z,64.82
2023-02-02T15:19:34.219Z,64.19
2023-02-02T15:22:18.432Z,64.37
2023-02-02T15:24:45.822Z,64.00
2023-02-02T15:27:18.393Z,64.42
2023-02-02T15:29:49.338Z,64.41
2023-02-02T15:32:18.873Z,64.39
2023-02-02T15:34:48.242Z,64.66
2023-02-02T15:37:19.962Z,65.30
2023-02-02T15:39:51.007Z,64.98
2023-02-02T15:42:41.192Z,65.31
2023-02-02T15:45:27.704Z,65.55
2023-02-02T15:47:55.636Z,64.71
2023-02-02T15:50:22.354Z,64.54
2023-02-02T15:52:50.983Z,64.83
2023-02-02T15:55:30.435Z,65.58
2023-02-02T15:57:57.182Z,65.17
2023-02-02T16:00:32.722Z,65.36
2023-02-02T16:02:59.200Z,64.84
2023-02-02T16:05:31.440Z,65.67
2023-02-02T16:08:05.610Z,65.15
2023-02-02T16:10:33.807Z,65.16
2023-02-02T16:13:00.348Z,65.16
2023-02-02T16:15:28.917Z,65.31
2023-02-02T16:17:59.218Z,65.31
2023-02-02T16:20:28.153Z,65.33
2023-02-02T16:22:57.324Z,65.86
2023-02-02T16:25:24.154Z,66.23
2023-02-02T16:27:51.190Z,66.17
2023-02-02T16:30:47.777Z,66.28
2023-02-02T16:33:30.824Z,66.17
2023-02-02T16:35:57.724Z,66.61
2023-02-02T16:38:35.154Z,66.33
2023-02-02T16:41:13.581Z,66.96
2023-02-02T16:43:42.084Z,66.92
2023-02-02T16:46:14.003Z,66.77
2023-02-02T16:48:58.245Z,67.54
2023-02-02T16:51:28.737Z,67.81
2023-02-02T16:54:06.322Z,68.27
2023-02-02T16:56:38.299Z,68.32
2023-02-02T16:59:13.767Z,68.68
2023-02-02T17:01:48.522Z,68.59
2023-02-02T17:04:26.031Z,68.67
2023-02-02T17:06:55.130Z,69.27
2023-02-02T17:09:33.137Z,69.10
2023-02-02T17:12:32.144Z,69.83
2023-02-02T17:15:02.898Z,69.83
2023-02-02T17:17:29.394Z,70.02
2023-02-02T17:19:56.318Z,70.20
2023-02-02T17:22:25.941Z,70.87
2023-02-02T17:24:53.040Z,70.49
2023-02-02T17:27:29.009Z,70.83
2023-02-02T17:29:56.825Z,71.32
2023-02-02T17:32:23.345Z,70.77
2023-02-02T17:34:49.849Z,70.67
2023-02-02T17:37:16.370Z,71.30
2023-02-02T17:39:42.985Z,71.41
2023-02-02T17:42:35.793Z,72.47
2023-02-02T17:45:02.270Z,72.73
2023-02-02T17:47:28.824Z,72.79
2023-02-02T17:49:55.417Z,73.00
2023-02-02T17:52:21.901Z,73.76
2023-02-02T17:54:48.395Z,73.65
2023-02-02T17:57:14.899Z,74.41
2023-02-02T17:59:41.378Z,75.15
2023-02-02T18:02:12.699Z,74.93
2023-02-02T18:04:39.237Z,74.88
2023-02-02T18:07:05.760Z,75.54
2023-02-02T18:09:33.790Z,75.51
2023-02-02T18:12:00.446Z,76.19
2023-02-02T18:14:26.973Z,75.47
2023-02-02T18:16:53.459Z,76.07
2023-02-02T18:19:19.963Z,75.75
2023-02-02T18:21:46.423Z,76.07
2023-02-02T18:24:13.601Z,75.66
2023-02-02T18:26:40.107Z,75.73
2023-02-02T18:29:06.925Z,75.39
2023-02-02T18:31:33.515Z,76.04
2023-02-02T18:34:00.226Z,75.78
2023-02-02T18:36:26.712Z,75.85
2023-02-02T18:38:53.217Z,76.37
2023-02-02T18:41:20.490Z,76.12
2023-02-02T18:43:47.511Z,76.06
2023-02-02T18:46:15.791Z,76.24
2023-02-02T18:48:42.907Z,75.95
2023-02-02T18:51:15.040Z,76.55
2023-02-02T18:53:46.129Z,76.16
2023-02-02T18:56:14.689Z,76.53
2023-02-02T18:58:41.579Z,76.63
2023-02-02T19:01:16.347Z,76.53
2023-02-02T19:03:47.128Z,77.24
2023-02-02T19:06:13.760Z,76.98
2023-02-02T19:08:40.239Z,77.31
2023-02-02T19:11:15.146Z,77.11
2023-02-02T19:13:41.652Z,76.86
2023-02-02T19:16:40.516Z,78.18
2023-02-02T19:19:22.008Z,77.45
2023-02-02T19:21:48.697Z,77.42
2023-02-02T19:24:15.147Z,77.43
2023-02-02T19:26:46.164Z,78.30
2023-02-02T19:29:23.315Z,78.17
2023-02-02T19:31:58.662Z,78.20
2023-02-02T19:34:25.239Z,77.72
2023-02-02T19:36:51.773Z,77.77
2023-02-02T19:39:29.703Z,77.96
2023-02-02T19:42:00.418Z,78.39
2023-02-02T19:44:31.016Z,77.84
2023-02-02T19:46:57.829Z,77.71
2023-02-02T19:49:32.283Z,77.82
2023-02-02T19:51:59.709Z,78.01
2023-02-02T19:54:28.024Z,77.70
2023-02-02T19:57:13.757Z,78.20
2023-02-02T19:59:41.716Z,77.65
2023-02-02T20:02:37.367Z,78.15
2023-02-02T20:05:17.588Z,77.72
2023-02-02T20:07:44.116Z,77.44
2023-02-02T20:10:23.781Z,77.78
2023-02-02T20:12:51.758Z,77.79
2023-02-02T20:15:34.421Z,78.27
2023-02-02T20:18:05.147Z,78.10
2023-02-02T20:20:43.767Z,78.43
2023-02-02T20:23:35.934Z,77.97
2023-02-02T20:26:07.728Z,77.74
2023-02-02T20:28:45.103Z,78.04
2023-02-02T20:31:18.279Z,78.14
2023-02-02T20:33:51.957Z,78.15
2023-02-02T20:36:30.131Z,78.06
2023-02-02T20:39:00.058Z,78.40
2023-02-02T20:41:26.826Z,77.54
2023-02-02T20:43:53.315Z,77.31
2023-02-02T20:46:19.866Z,77.49
2023-02-02T20:48:46.385Z,77.51
2023-02-02T20:51:12.910Z,77.37
2023-02-02T20:53:39.614Z,77.83
2023-02-02T20:56:06.297Z,77.45
2023-02-02T20:58:32.821Z,77.31
2023-02-02T21:00:59.367Z,77.16
2023-02-02T21:03:25.881Z,77.26
2023-02-02T21:05:52.409Z,77.35
2023-02-02T21:08:18.857Z,77.16
2023-02-02T21:10:45.318Z,76.46
2023-02-02T21:13:11.817Z,76.55
2023-02-02T21:15:38.330Z,76.76
2023-02-02T21:18:04.846Z,76.40
2023-02-02T21:20:31.379Z,77.04
2023-02-02T21:22:57.850Z,76.60
2023-02-02T21:25:25.063Z,76.66
2023-02-02T21:27:57.462Z,76.46
2023-02-02T21:30:23.937Z,76.78
2023-02-02T21:32:50.472Z,76.35
2023-02-02T21:35:17.311Z,76.93
2023-02-02T21:37:43.882Z,78.01
2023-02-02T21:40:15.205Z,77.65
2023-02-02T21:42:47.689Z,78.21
2023-02-02T21:45:20.207Z,78.13
2023-02-02T21:47:53.744Z,79.08
2023-02-02T21:50:42.406Z,77.90
2023-02-02T21:53:20.683Z,79.37
2023-02-02T21:55:50.070Z,78.45
2023-02-02T21:58:35.062Z,79.39
2023-02-02T22:01:22.553Z,79.71
2023-02-02T22:03:49.407Z,79.35
2023-02-02T22:06:28.407Z,80.20
2023-02-02T22:09:26.101Z,80.14
2023-02-02T22:12:00.518Z,80.11
2023-02-02T22:14:40.900Z,80.42
2023-02-02T22:17:34.165Z,80.69
2023-02-02T22:20:07.175Z,80.63
2023-02-02T22:22:36.180Z,80.85
2023-02-02T22:25:33.430Z,80.60
2023-02-02T22:28:13.088Z,81.37
2023-02-02T22:30:41.650Z,81.49
2023-02-02T22:33:10.457Z,81.20
2023-02-02T22:35:37.946Z,81.25
2023-02-02T22:38:05.010Z,81.27
2023-02-02T22:40:31.606Z,81.19
2023-02-02T22:43:05.274Z,82.13
2023-02-02T22:45:32.028Z,81.48
2023-02-02T22:47:58.624Z,81.97
2023-02-02T22:50:28.235Z,81.89
2023-02-02T22:52:55.134Z,82.21
2023-02-02T22:55:22.224Z,82.32
2023-02-02T22:57:48.794Z,82.75
2023-02-02T23:00:21.729Z,82.81
2023-02-02T23:02:48.576Z,82.81
2023-02-02T23:05:16.970Z,82.74
2023-02-02T23:07:44.015Z,83.09
2023-02-02T23:10:17.183Z,83.20
2023-02-02T23:12:44.274Z,83.71
2023-02-02T23:15:12.289Z,83.55
2023-02-02T23:17:38.990Z,83.68
2023-02-02T23:20:07.990Z,83.65
2023-02-02T23:22:34.545Z,83.57
2023-02-02T23:25:01.030Z,83.62
2023-02-02T23:27:27.722Z,83.45
2023-02-02T23:29:54.198Z,83.88
2023-02-02T23:32:20.780Z,83.96
2023-02-02T23:34:47.315Z,83.72
2023-02-02T23:37:13.831Z,83.92
2023-02-02T23:39:40.308Z,83.97
2023-02-02T23:42:06.791Z,83.85
2023-02-02T23:44:33.228Z,84.29
2023-02-02T23:47:01.782Z,83.92
2023-02-02T23:49:30.248Z,83.83
2023-02-02T23:51:56.925Z,83.94
2023-02-02T23:54:23.499Z,84.08
2023-02-02T23:56:50.656Z,83.86
2023-02-02T23:59:17.355Z,83.57
